Time;durP1;ratioP1;P1;durP2;ratioP2;P2;SDS_P1;SDS_P2;PMS_P1;PMS_P2;Temp;Humidity;BMP_temperature;BMP_pressure;BME280_temperature;BME280_humidity;BME280_pressure;Samples;Min_cycle;Max_cycle;Signal;HPM_P1;HPM_P2
2023/03/29 00:00:49;;;;;;;7.00;5.10;;;4.30;1.00;;;;;;5058885;28;20465;-60
2023/03/29 00:03:17;;;;;;;6.13;5.47;;;4.30;1.00;;;;;;5058405;28;20901;-59
2023/03/29 00:05:44;;;;;;;6.70;4.50;;;4.30;1.00;;;;;;5058397;28;20501;-61
2023/03/29 00:08:13;;;;;;;9.37;5.13;;;4.40;1.00;;;;;;5058427;28;20458;-59
2023/03/29 00:10:41;;;;;;;6.37;5.43;;;4.50;1.00;;;;;;5058594;28;20465;-60
2023/03/29 00:13:08;;;;;;;5.37;4.83;;;4.40;1.00;;;;;;5058385;28;20750;-61
2023/03/29 00:15:35;;;;;;;6.90;5.50;;;4.40;1.00;;;;;;5058157;28;20489;-60
2023/03/29 00:18:02;;;;;;;6.23;5.27;;;4.40;1.00;;;;;;5057950;28;20960;-59
2023/03/29 00:20:30;;;;;;;7.43;5.00;;;4.50;99.90;;;;;;5057436;28;20518;-59
2023/03/29 00:22:57;;;;;;;6.03;4.67;;;4.50;99.90;;;;;;5057883;28;20441;-58
2023/03/29 00:25:26;;;;;;;9.90;4.70;;;4.50;99.90;;;;;;5058129;28;20907;-58
2023/03/29 00:27:53;;;;;;;6.27;4.90;;;4.50;99.90;;;;;;5057537;28;20765;-59
2023/03/29 00:30:20;;;;;;;6.40;4.80;;;4.50;99.90;;;;;;5057660;28;20939;-60
2023/03/29 00:32:47;;;;;;;6.27;5.20;;;4.60;99.90;;;;;;5057825;28;20462;-60
2023/03/29 00:35:15;;;;;;;6.90;4.73;;;4.60;99.90;;;;;;5058352;28;20466;-60
2023/03/29 00:37:42;;;;;;;8.10;5.27;;;4.60;99.90;;;;;;5057566;28;20517;-60
2023/03/29 00:40:11;;;;;;;6.30;4.50;;;4.60;99.90;;;;;;5058150;28;20459;-61
2023/03/29 00:42:45;;;;;;;9.50;5.30;;;4.60;99.90;;;;;;5057120;28;20463;-61
2023/03/29 00:45:19;;;;;;;6.13;4.73;;;4.60;99.90;;;;;;5057782;28;20436;-61
2023/03/29 00:47:50;;;;;;;6.50;4.70;;;4.70;99.90;;;;;;5057293;28;20464;-61
2023/03/29 00:50:21;;;;;;;6.27;5.00;;;4.60;99.90;;;;;;5057239;28;20899;-61
2023/03/29 00:52:53;;;;;;;8.70;4.57;;;4.60;99.90;;;;;;5058022;28;20465;-60
2023/03/29 00:55:23;;;;;;;8.40;5.00;;;4.70;99.90;;;;;;5057842;28;20462;-62
2023/03/29 00:57:54;;;;;;;8.27;4.93;;;4.60;99.90;;;;;;5057264;28;20477;-61
2023/03/29 01:00:26;;;;;;;7.77;4.53;;;4.70;99.90;;;;;;5056862;28;20466;-61
2023/03/29 01:02:58;;;;;;;7.80;4.87;;;4.70;99.90;;;;;;5057432;28;20489;-63
2023/03/29 01:05:30;;;;;;;5.33;4.10;;;4.70;99.90;;;;;;5057212;28;20845;-62
2023/03/29 01:08:01;;;;;;;4.60;3.80;;;4.70;99.90;;;;;;5056936;28;20462;-62
2023/03/29 01:10:35;;;;;;;6.80;4.97;;;4.70;99.90;;;;;;5057191;28;20468;-62
2023/03/29 01:13:08;;;;;;;6.90;4.80;;;4.70;99.90;;;;;;5057213;28;20762;-61
2023/03/29 01:15:36;;;;;;;4.37;3.77;;;4.80;99.90;;;;;;5057014;28;20553;-62
2023/03/29 01:18:05;;;;;;;6.07;4.40;;;4.80;99.90;;;;;;5056621;28;20496;-62
2023/03/29 01:20:47;;;;;;;5.30;4.13;;;4.80;99.90;;;;;;5057333;28;20762;-62
2023/03/29 01:23:36;;;;;;;7.27;3.70;;;4.70;99.90;;;;;;5057061;28;20970;-63
2023/03/29 01:26:11;;;;;;;6.00;4.53;;;4.70;99.90;;;;;;5056865;28;20554;-63
2023/03/29 01:28:45;;;;;;;6.20;3.77;;;4.70;99.90;;;;;;5056792;28;20724;-61
2023/03/29 01:31:17;;;;;;;4.97;4.40;;;4.70;99.90;;;;;;5057037;28;20457;-63
2023/03/29 01:33:49;;;;;;;5.63;4.33;;;4.70;99.90;;;;;;5056481;28;20504;-62
2023/03/29 01:36:21;;;;;;;5.20;4.10;;;4.80;99.90;;;;;;5058314;28;20477;-62
2023/03/29 01:38:53;;;;;;;6.33;4.00;;;4.70;99.90;;;;;;5060599;28;20581;-62
2023/03/29 01:41:21;;;;;;;9.43;4.73;;;4.70;99.90;;;;;;5060722;28;20889;-62
2023/03/29 01:43:55;;;;;;;8.10;4.87;;;4.70;99.90;;;;;;5060725;28;20497;-61
2023/03/29 01:46:31;;;;;;;4.83;4.33;;;4.70;99.90;;;;;;5061016;28;20758;-63
2023/03/29 01:49:02;;;;;;;7.03;4.30;;;4.80;99.90;;;;;;5061050;28;20458;-62
2023/03/29 01:51:36;;;;;;;6.33;5.03;;;4.80;99.90;;;;;;5060146;28;20466;-62
2023/03/29 01:54:07;;;;;;;6.03;4.77;;;4.80;99.90;;;;;;5060613;28;20560;-62
2023/03/29 01:56:38;;;;;;;6.00;4.33;;;4.80;99.90;;;;;;5060550;28;20881;-62
2023/03/29 01:59:10;;;;;;;7.10;4.70;;;4.70;99.90;;;;;;5060528;28;20486;-60
2023/03/29 02:01:47;;;;;;;7.27;4.60;;;4.70;99.90;;;;;;5060156;28;20468;-62
2023/03/29 02:04:17;;;;;;;6.63;4.20;;;4.80;99.90;;;;;;5041680;28;20505;-62
2023/03/29 02:06:46;;;;;;;5.53;4.40;;;4.80;99.90;;;;;;5059961;28;20455;-62
2023/03/29 02:09:14;;;;;;;6.67;4.37;;;4.80;99.90;;;;;;5060488;28;20515;-63
2023/03/29 02:11:43;;;;;;;5.83;4.20;;;4.80;99.90;;;;;;5059789;28;20461;-65
2023/03/29 02:14:15;;;;;;;5.60;4.40;;;4.90;99.90;;;;;;5060465;28;20458;-66
2023/03/29 02:16:44;;;;;;;8.33;4.77;;;4.80;99.90;;;;;;5060285;28;20552;-65
2023/03/29 02:19:14;;;;;;;5.67;4.00;;;4.90;99.90;;;;;;5059760;28;20486;-64
2023/03/29 02:21:47;;;;;;;7.27;4.30;;;4.80;99.90;;;;;;5058803;28;20470;-62
2023/03/29 02:24:19;;;;;;;5.37;4.53;;;4.90;99.90;;;;;;5060200;28;20528;-62
2023/03/29 02:26:48;;;;;;;5.30;4.20;;;4.90;99.90;;;;;;5060033;28;20874;-62
2023/03/29 02:29:17;;;;;;;8.10;4.50;;;5.00;99.90;;;;;;5059619;28;20539;-63
2023/03/29 02:31:48;;;;;;;6.60;4.20;;;5.00;99.90;;;;;;5058309;28;20462;-62
2023/03/29 02:34:21;;;;;;;5.07;4.50;;;5.00;99.90;;;;;;5058683;28;20488;-62
2023/03/29 02:36:52;;;;;;;7.13;4.50;;;5.00;99.90;;;;;;5058625;28;20466;-62
2023/03/29 02:39:24;;;;;;;5.33;4.60;;;5.10;99.90;;;;;;5058275;28;20524;-62
2023/03/29 02:41:52;;;;;;;8.90;4.73;;;5.10;99.90;;;;;;5058318;28;20441;-62
2023/03/29 02:44:22;;;;;;;5.10;4.50;;;5.10;99.90;;;;;;5058813;28;20897;-62
2023/03/29 02:46:52;;;;;;;5.53;4.57;;;5.10;99.90;;;;;;5057799;28;20465;-61
2023/03/29 02:49:19;;;;;;;6.37;5.03;;;5.10;99.90;;;;;;5058812;28;20777;-62
2023/03/29 02:51:49;;;;;;;5.43;4.67;;;5.10;99.90;;;;;;5057929;28;20463;-62
2023/03/29 02:54:19;;;;;;;6.13;4.33;;;5.10;99.90;;;;;;5058197;28;20466;-62
2023/03/29 02:56:48;;;;;;;5.83;4.60;;;5.10;99.90;;;;;;5058204;28;20511;-61
2023/03/29 02:59:18;;;;;;;5.60;4.00;;;5.20;99.90;;;;;;5058387;28;20927;-62
2023/03/29 03:01:46;;;;;;;6.53;4.57;;;5.20;99.90;;;;;;5058054;28;20490;-62
2023/03/29 03:04:14;;;;;;;5.27;4.10;;;5.20;99.90;;;;;;5058173;28;20753;-62
2023/03/29 03:06:41;;;;;;;6.97;3.87;;;5.30;99.90;;;;;;5058232;28;20466;-62
2023/03/29 03:09:08;;;;;;;4.90;4.37;;;5.30;99.90;;;;;;5057697;28;20489;-62
2023/03/29 03:11:36;;;;;;;5.40;4.07;;;5.30;99.90;;;;;;5057997;28;20488;-61
2023/03/29 03:14:04;;;;;;;6.20;4.80;;;5.20;99.90;;;;;;5056760;28;20975;-62
2023/03/29 03:16:32;;;;;;;8.53;4.37;;;5.20;99.90;;;;;;5054851;28;20477;-62
2023/03/29 03:19:00;;;;;;;6.67;4.27;;;5.30;99.90;;;;;;5057212;28;20497;-62
2023/03/29 03:21:28;;;;;;;4.73;4.20;;;5.30;99.90;;;;;;5057394;28;20458;-61
2023/03/29 03:23:55;;;;;;;7.50;4.63;;;5.30;99.90;;;;;;5057616;28;20875;-61
2023/03/29 03:26:23;;;;;;;5.20;3.80;;;5.30;99.90;;;;;;5057557;28;20462;-61
2023/03/29 03:28:51;;;;;;;4.40;4.00;;;5.40;99.90;;;;;;5012570;28;1254208;-61
2023/03/29 03:31:18;;;;;;;5.60;4.40;;;5.40;99.90;;;;;;5057317;28;20476;-61
2023/03/29 03:33:46;;;;;;;6.23;4.10;;;5.40;99.90;;;;;;5057181;28;20557;-61
2023/03/29 03:36:15;;;;;;;7.37;4.40;;;5.40;99.90;;;;;;5058544;28;20463;-61
2023/03/29 03:38:42;;;;;;;6.13;4.10;;;5.40;99.90;;;;;;5058562;28;20496;-61
2023/03/29 03:41:09;;;;;;;6.40;4.33;;;5.40;99.90;;;;;;5058523;28;20941;-62
2023/03/29 03:43:37;;;;;;;5.10;4.10;;;5.50;99.90;;;;;;5058136;28;20468;-61
2023/03/29 03:46:04;;;;;;;7.47;4.63;;;5.40;99.90;;;;;;5057547;28;20476;-60
2023/03/29 03:48:32;;;;;;;8.33;3.60;;;5.40;99.90;;;;;;5055947;28;20441;-58
2023/03/29 03:50:59;;;;;;;7.70;4.23;;;5.40;99.90;;;;;;5057765;28;20466;-60
2023/03/29 03:53:28;;;;;;;8.13;3.87;;;5.40;99.90;;;;;;5058757;28;20473;-60
2023/03/29 03:55:55;;;;;;;6.80;5.03;;;5.50;99.90;;;;;;5058446;28;20484;-59
2023/03/29 03:58:23;;;;;;;5.30;3.93;;;5.50;99.90;;;;;;5057416;28;20465;-60
2023/03/29 04:00:51;;;;;;;5.50;3.90;;;5.50;99.90;;;;;;5058215;28;20549;-60
2023/03/29 04:03:18;;;;;;;6.30;3.83;;;5.50;99.90;;;;;;5058280;28;20437;-58
2023/03/29 04:05:46;;;;;;;7.37;4.53;;;5.50;99.90;;;;;;5057782;28;20466;-59
2023/03/29 04:08:14;;;;;;;5.40;4.10;;;5.60;99.90;;;;;;5057499;28;20553;-58
2023/03/29 04:10:43;;;;;;;5.40;4.10;;;5.50;99.90;;;;;;5057872;28;20472;-60
2023/03/29 04:13:10;;;;;;;6.53;4.40;;;5.50;99.90;;;;;;5057699;28;20892;-59
2023/03/29 04:15:38;;;;;;;5.83;4.17;;;5.50;99.90;;;;;;5057813;28;20466;-60
2023/03/29 04:18:06;;;;;;;5.80;4.47;;;5.60;99.90;;;;;;5056580;28;20524;-58
2023/03/29 04:20:33;;;;;;;5.90;4.40;;;5.60;99.90;;;;;;5057317;28;20497;-58
2023/03/29 04:23:00;;;;;;;6.67;4.83;;;5.60;99.90;;;;;;5055551;28;20833;-59
2023/03/29 04:25:27;;;;;;;5.07;4.57;;;5.60;99.90;;;;;;5057369;28;20859;-57
2023/03/29 04:27:56;;;;;;;7.33;4.20;;;5.70;99.90;;;;;;5057196;28;20473;-59
2023/03/29 04:30:23;;;;;;;6.10;4.50;;;5.70;99.90;;;;;;5056983;28;20504;-60
2023/03/29 04:32:50;;;;;;;5.27;4.17;;;5.70;99.90;;;;;;5055420;28;20480;-60
2023/03/29 04:35:18;;;;;;;4.97;4.40;;;5.70;99.90;;;;;;5056089;28;20480;-58
2023/03/29 04:37:45;;;;;;;9.70;4.10;;;5.70;99.90;;;;;;5055838;28;20483;-58
2023/03/29 04:40:13;;;;;;;6.37;4.80;;;5.70;99.90;;;;;;5057035;28;20497;-58
2023/03/29 04:42:43;;;;;;;7.53;4.63;;;5.70;99.90;;;;;;5057436;28;20466;-55
2023/03/29 04:45:13;;;;;;;6.33;4.10;;;5.70;99.90;;;;;;5058136;28;20482;-56
2023/03/29 04:47:40;;;;;;;6.30;4.60;;;5.70;99.90;;;;;;5057579;28;20462;-54
2023/03/29 04:50:08;;;;;;;9.90;5.47;;;5.70;99.90;;;;;;5057385;28;20437;-57
2023/03/29 04:52:35;;;;;;;4.60;3.80;;;5.70;99.90;;;;;;5056651;28;20549;-57
2023/03/29 04:55:04;;;;;;;6.40;4.70;;;5.70;99.90;;;;;;5057035;28;20885;-57
2023/03/29 04:57:32;;;;;;;7.00;4.43;;;5.70;99.90;;;;;;5056984;28;20466;-59
2023/03/29 04:59:59;;;;;;;6.17;4.47;;;5.70;99.90;;;;;;5056980;28;20486;-58
2023/03/29 05:02:31;;;;;;;10.13;4.73;;;5.70;99.90;;;;;;5057090;28;20458;-60
2023/03/29 05:04:58;;;;;;;5.80;4.20;;;5.70;99.90;;;;;;5055238;28;20512;-60
2023/03/29 05:07:25;;;;;;;7.70;5.00;;;5.70;99.90;;;;;;5054790;28;20756;-60
2023/03/29 05:09:52;;;;;;;8.03;5.47;;;5.70;99.90;;;;;;5054620;28;20469;-58
2023/03/29 05:12:19;;;;;;;7.47;4.80;;;5.70;99.90;;;;;;5054229;28;20437;-59
2023/03/29 05:14:46;;;;;;;8.77;5.33;;;5.60;99.90;;;;;;5054528;28;20465;-60
2023/03/29 05:17:13;;;;;;;6.57;5.27;;;5.60;99.90;;;;;;5054116;28;20756;-61
2023/03/29 05:19:43;;;;;;;7.77;5.67;;;5.60;99.90;;;;;;5053384;28;20485;-61
2023/03/29 05:22:10;;;;;;;6.10;5.43;;;5.70;1.00;;;;;;5055969;28;20466;-61
2023/03/29 05:24:37;;;;;;;6.73;5.07;;;5.60;1.00;;;;;;5055823;28;20871;-62
2023/03/29 05:27:04;;;;;;;7.00;5.90;;;5.70;1.00;;;;;;5056349;28;20462;-60
2023/03/29 05:29:32;;;;;;;7.40;5.70;;;5.70;1.00;;;;;;5056038;28;20489;-59
2023/03/29 05:32:00;;;;;;;5.90;5.27;;;5.70;1.00;;;;;;5057048;28;20859;-61
2023/03/29 05:34:28;;;;;;;6.93;6.17;;;5.70;1.00;;;;;;5053956;28;20474;-61
2023/03/29 05:36:58;;;;;;;10.23;5.57;;;5.60;1.00;;;;;;5054222;28;20466;-62
2023/03/29 05:39:25;;;;;;;9.43;5.93;;;5.60;1.00;;;;;;5054953;28;20584;-62
2023/03/29 05:41:53;;;;;;;7.93;6.00;;;5.60;1.00;;;;;;5055030;28;20493;-62
2023/03/29 05:44:20;;;;;;;8.50;5.97;;;5.60;1.00;;;;;;5053998;28;20466;-65
2023/03/29 05:46:48;;;;;;;6.30;5.53;;;5.70;1.00;;;;;;5054744;28;20466;-66
2023/03/29 05:49:15;;;;;;;14.83;6.63;;;5.60;1.00;;;;;;5055057;28;20541;-65
2023/03/29 05:51:44;;;;;;;10.73;5.70;;;5.70;1.00;;;;;;5055151;28;20815;-63
2023/03/29 05:54:15;;;;;;;9.00;6.00;;;5.60;1.00;;;;;;5055863;28;20523;-61
2023/03/29 05:56:42;;;;;;;7.40;5.80;;;5.60;1.00;;;;;;5056465;28;20519;-62
2023/03/29 05:59:10;;;;;;;8.50;6.57;;;5.60;1.00;;;;;;5052001;28;20496;-62
2023/03/29 06:01:38;;;;;;;8.43;6.77;;;5.60;1.00;;;;;;5052370;28;20481;-63
2023/03/29 06:04:06;;;;;;;10.53;6.53;;;5.70;4.20;;;;;;5056574;28;20466;-63
2023/03/29 06:06:34;;;;;;;9.63;7.57;;;5.70;20.70;;;;;;5055834;28;20465;-64
2023/03/29 06:09:01;;;;;;;23.17;15.87;;;5.70;41.00;;;;;;5055924;28;20462;-64
2023/03/29 06:11:30;;;;;;;9.57;6.40;;;5.90;73.10;;;;;;5056280;28;20520;-63
2023/03/29 06:13:57;;;;;;;10.60;7.07;;;6.00;86.70;;;;;;5056538;28;20467;-62
2023/03/29 06:16:25;;;;;;;12.30;8.73;;;6.00;35.40;;;;;;5056133;28;20553;-63
2023/03/29 06:18:53;;;;;;;9.73;7.93;;;6.00;23.00;;;;;;5055932;28;20462;-62
2023/03/29 06:21:20;;;;;;;12.10;9.97;;;6.10;1.00;;;;;;5037646;28;20907;-62
2023/03/29 06:23:47;;;;;;;15.23;9.00;;;6.10;1.00;;;;;;5059813;28;20894;-62
2023/03/29 06:26:15;;;;;;;13.93;9.93;;;6.10;1.00;;;;;;5060176;28;20908;-62
2023/03/29 06:28:43;;;;;;;13.50;9.13;;;6.20;1.00;;;;;;5058472;28;20489;-63
2023/03/29 06:31:11;;;;;;;9.20;6.80;;;6.30;1.00;;;;;;5059439;28;20466;-62
2023/03/29 06:33:41;;;;;;;8.60;6.80;;;6.30;1.00;;;;;;5059691;28;20450;-63
2023/03/29 06:36:10;;;;;;;9.03;6.90;;;6.30;1.00;;;;;;5059747;28;20461;-62
2023/03/29 06:38:37;;;;;;;16.07;11.23;;;6.40;1.00;;;;;;5059274;28;20462;-62
2023/03/29 06:41:05;;;;;;;9.07;6.37;;;6.40;1.00;;;;;;5059707;28;20819;-63
2023/03/29 06:43:33;;;;;;;12.53;9.00;;;6.40;1.00;;;;;;5059279;28;20458;-62
2023/03/29 06:46:02;;;;;;;13.07;8.73;;;6.50;1.00;;;;;;5059774;28;20532;-63
2023/03/29 06:48:30;;;;;;;7.70;5.73;;;6.40;1.00;;;;;;5059020;28;20463;-63
2023/03/29 06:50:57;;;;;;;8.40;6.40;;;6.40;1.00;;;;;;5059181;28;20817;-63
2023/03/29 06:53:25;;;;;;;8.17;6.50;;;6.40;1.00;;;;;;5059035;28;20478;-62
2023/03/29 06:55:52;;;;;;;10.00;7.37;;;6.50;1.00;;;;;;5059546;28;20516;-63
2023/03/29 06:58:20;;;;;;;6.93;5.73;;;6.50;1.00;;;;;;5059375;28;20548;-62
2023/03/29 07:00:47;;;;;;;8.60;5.70;;;6.50;1.00;;;;;;5059104;28;20492;-63
2023/03/29 07:03:22;;;;;;;7.00;5.40;;;6.40;1.00;;;;;;5058766;28;20468;-63
2023/03/29 07:05:50;;;;;;;10.37;7.93;;;6.40;1.00;;;;;;5059688;28;20767;-63
2023/03/29 07:08:19;;;;;;;6.40;5.40;;;6.50;1.00;;;;;;5059473;28;20469;-63
2023/03/29 07:10:48;;;;;;;8.80;5.40;;;6.50;1.00;;;;;;5059395;28;20463;-63
2023/03/29 07:13:16;;;;;;;8.93;5.63;;;6.60;1.00;;;;;;5058842;28;20771;-63
2023/03/29 07:15:44;;;;;;;7.60;5.30;;;6.60;1.00;;;;;;5059113;28;20489;-63
2023/03/29 07:18:12;;;;;;;6.40;5.07;;;6.60;99.90;;;;;;5059247;28;20454;-63
2023/03/29 07:20:41;;;;;;;8.37;4.93;;;6.60;99.90;;;;;;5059081;28;20938;-63
2023/03/29 07:23:09;;;;;;;9.07;5.20;;;6.70;99.90;;;;;;5057780;28;20459;-63
2023/03/29 07:25:37;;;;;;;6.47;4.77;;;6.80;99.90;;;;;;5057378;28;20901;-63
2023/03/29 07:28:05;;;;;;;8.27;5.50;;;6.80;99.90;;;;;;5053671;28;20568;-63
2023/03/29 07:30:33;;;;;;;4.80;4.20;;;6.90;99.90;;;;;;5051361;28;20528;-64
2023/03/29 07:33:00;;;;;;;6.07;4.70;;;6.90;99.90;;;;;;5044251;28;20536;-64
2023/03/29 07:35:29;;;;;;;8.90;5.37;;;6.90;99.90;;;;;;5056969;28;20472;-64
2023/03/29 07:37:58;;;;;;;6.10;4.70;;;7.00;99.90;;;;;;5057754;28;20458;-64
2023/03/29 07:40:26;;;;;;;5.80;5.00;;;7.10;99.90;;;;;;5058661;28;20496;-63
2023/03/29 07:42:56;;;;;;;7.60;5.23;;;7.10;99.90;;;;;;5057817;28;20473;-64
2023/03/29 07:45:24;;;;;;;5.40;4.60;;;7.10;99.90;;;;;;5058353;28;20466;-65
2023/03/29 07:47:54;;;;;;;8.23;5.07;;;7.20;99.90;;;;;;5058446;28;20465;-66
2023/03/29 07:50:22;;;;;;;4.70;3.83;;;7.20;99.90;;;;;;5058503;28;20907;-66
2023/03/29 07:52:49;;;;;;;5.90;4.73;;;7.30;99.90;;;;;;5057906;28;20462;-66
2023/03/29 07:55:18;;;;;;;9.43;5.27;;;7.40;99.90;;;;;;5058224;28;20474;-65
2023/03/29 07:57:45;;;;;;;6.40;4.60;;;7.50;99.90;;;;;;5058485;28;20472;-66
2023/03/29 08:00:14;;;;;;;9.80;6.70;;;7.50;99.90;;;;;;5057897;28;20917;-65
2023/03/29 08:02:46;;;;;;;10.40;7.00;;;7.50;99.90;;;;;;5057867;28;20462;-65
2023/03/29 08:05:14;;;;;;;9.97;6.60;;;7.60;99.90;;;;;;5057807;28;20934;-66
2023/03/29 08:07:44;;;;;;;21.70;9.90;;;7.70;99.90;;;;;;5057472;28;20458;-66
2023/03/29 08:10:14;;;;;;;13.30;6.43;;;7.80;99.90;;;;;;5057605;28;20437;-66
2023/03/29 08:12:43;;;;;;;15.40;6.90;;;7.90;99.90;;;;;;5058032;28;20775;-66
2023/03/29 08:15:12;;;;;;;12.87;8.60;;;7.90;99.90;;;;;;5057516;28;20466;-65
2023/03/29 08:17:39;;;;;;;12.73;6.10;;;8.00;99.90;;;;;;5058112;28;20473;-65
2023/03/29 08:20:09;;;;;;;18.27;8.30;;;8.10;99.90;;;;;;5057709;28;20586;-65
2023/03/29 08:22:37;;;;;;;7.17;4.70;;;8.10;99.90;;;;;;5058144;28;20477;-65
2023/03/29 08:25:05;;;;;;;10.90;6.80;;;8.20;99.90;;;;;;5060241;28;20466;-65
2023/03/29 08:27:33;;;;;;;10.00;5.60;;;8.30;99.90;;;;;;5057265;28;20494;-65
2023/03/29 08:30:01;;;;;;;13.07;7.67;;;8.30;99.90;;;;;;5057291;28;20510;-65
2023/03/29 08:32:29;;;;;;;14.77;7.50;;;8.40;99.90;;;;;;5056795;28;20496;-65
2023/03/29 08:34:56;;;;;;;9.37;5.03;;;8.50;99.90;;;;;;5057159;28;20557;-64
2023/03/29 08:37:24;;;;;;;11.07;6.87;;;8.50;99.90;;;;;;5056172;28;20927;-65
2023/03/29 08:39:52;;;;;;;7.03;4.93;;;8.30;99.90;;;;;;5057190;28;20497;-64
2023/03/29 08:42:50;;;;;;;9.37;5.40;;;8.20;99.90;;;;;;5057019;28;20907;-65
2023/03/29 08:45:28;;;;;;;7.43;5.80;;;8.10;99.90;;;;;;5049749;28;20934;-62
2023/03/29 08:48:03;;;;;;;6.73;5.87;;;8.10;99.90;;;;;;5057274;28;20465;-64
2023/03/29 08:50:36;;;;;;;10.70;5.40;;;8.10;99.90;;;;;;5056798;28;20822;-64
2023/03/29 08:53:08;;;;;;;6.47;5.00;;;8.20;99.90;;;;;;5056924;28;20847;-64
2023/03/29 08:55:40;;;;;;;6.53;4.50;;;8.10;99.90;;;;;;5057084;28;20886;-64
2023/03/29 08:58:12;;;;;;;7.27;5.40;;;8.10;99.90;;;;;;5057200;28;20494;-63
2023/03/29 09:00:44;;;;;;;6.03;4.73;;;8.20;99.90;;;;;;5057269;28;20796;-64
2023/03/29 09:03:19;;;;;;;6.90;4.93;;;8.30;99.90;;;;;;5057192;28;20462;-64
2023/03/29 09:05:48;;;;;;;6.30;4.10;;;8.40;99.90;;;;;;5042920;28;20548;-64
2023/03/29 09:08:19;;;;;;;7.43;4.97;;;8.50;99.90;;;;;;5057342;28;20458;-63
2023/03/29 09:10:49;;;;;;;5.70;4.50;;;8.60;99.90;;;;;;5056928;28;20553;-63
2023/03/29 09:13:39;;;;;;;6.63;4.50;;;8.70;99.90;;;;;;5057432;28;20462;-63
2023/03/29 09:16:17;;;;;;;6.83;4.60;;;8.80;99.90;;;;;;5056852;28;20481;-61
2023/03/29 09:19:16;;;;;;;5.80;4.30;;;8.90;99.90;;;;;;5046834;28;20576;-58
2023/03/29 09:21:50;;;;;;;6.10;4.70;;;9.10;99.90;;;;;;5050893;28;20581;-60
2023/03/29 09:24:44;;;;;;;5.63;4.57;;;9.10;99.90;;;;;;5056103;28;20485;-60
2023/03/29 09:27:15;;;;;;;8.23;5.40;;;9.30;99.90;;;;;;5055674;28;20575;-59
2023/03/29 09:29:56;;;;;;;10.53;5.33;;;9.50;99.90;;;;;;5053336;28;20923;-61
2023/03/29 09:32:31;;;;;;;6.10;4.70;;;9.60;99.90;;;;;;5037663;28;20959;-60
2023/03/29 09:35:08;;;;;;;7.17;4.33;;;9.50;99.90;;;;;;5056495;28;20763;-59
2023/03/29 09:37:38;;;;;;;9.37;4.10;;;9.60;99.90;;;;;;5056565;28;20561;-56
2023/03/29 09:40:13;;;;;;;4.37;3.90;;;9.60;99.90;;;;;;5055160;28;20531;-64
2023/03/29 09:42:41;;;;;;;4.90;4.27;;;9.60;99.90;;;;;;5056005;28;20482;-62
2023/03/29 09:45:09;;;;;;;6.83;4.20;;;9.60;99.90;;;;;;5056413;28;20465;-62
2023/03/29 09:47:42;;;;;;;5.33;3.90;;;9.70;99.90;;;;;;5057037;28;20485;-63
2023/03/29 09:50:14;;;;;;;6.30;4.20;;;9.70;99.90;;;;;;5056363;28;20515;-62
2023/03/29 09:52:41;;;;;;;6.10;4.13;;;9.80;99.90;;;;;;5056718;28;20468;-62
2023/03/29 09:55:14;;;;;;;8.17;5.20;;;9.90;99.90;;;;;;5055987;28;20497;-63
2023/03/29 09:57:42;;;;;;;5.67;4.13;;;10.00;99.90;;;;;;5058799;28;20548;-62
2023/03/29 10:00:10;;;;;;;7.00;4.27;;;10.20;99.90;;;;;;5059384;28;20787;-62
2023/03/29 10:02:39;;;;;;;6.60;4.70;;;10.20;99.90;;;;;;5059338;28;20470;-59
2023/03/29 10:05:08;;;;;;;5.80;4.07;;;10.10;99.90;;;;;;5058567;28;20464;-62
2023/03/29 10:07:43;;;;;;;5.57;3.83;;;10.10;99.90;;;;;;5059208;28;20462;-62
2023/03/29 10:10:19;;;;;;;9.07;4.00;;;10.10;99.90;;;;;;5059341;28;20889;-60
2023/03/29 10:12:50;;;;;;;8.07;4.10;;;10.20;99.90;;;;;;5059265;28;20437;-61
2023/03/29 10:15:19;;;;;;;6.80;4.90;;;10.30;99.90;;;;;;5059964;28;20850;-60
2023/03/29 10:17:48;;;;;;;6.50;4.73;;;10.40;99.90;;;;;;5060552;28;20874;-61
2023/03/29 10:20:17;;;;;;;7.30;4.93;;;10.50;99.90;;;;;;5059278;28;20486;-62
2023/03/29 10:22:50;;;;;;;6.27;4.87;;;10.50;99.90;;;;;;5059664;28;20469;-61
2023/03/29 10:25:18;;;;;;;6.43;4.60;;;10.40;99.90;;;;;;5059321;28;20473;-62
2023/03/29 10:27:47;;;;;;;6.67;4.37;;;10.30;99.90;;;;;;5059341;28;20462;-62
2023/03/29 10:30:22;;;;;;;5.37;4.27;;;10.50;99.90;;;;;;5055745;28;20976;-60
2023/03/29 10:32:58;;;;;;;8.73;4.90;;;10.60;99.90;;;;;;5057974;28;20464;-61
2023/03/29 10:35:30;;;;;;;6.43;4.33;;;10.60;99.90;;;;;;5058479;28;20466;-62
2023/03/29 10:37:58;;;;;;;7.80;4.73;;;10.60;99.90;;;;;;5056664;28;20458;-61
2023/03/29 10:40:32;;;;;;;5.03;4.53;;;10.60;99.90;;;;;;5057657;28;20526;-62
2023/03/29 10:43:01;;;;;;;7.07;4.83;;;10.80;99.90;;;;;;5058476;28;20462;-57
2023/03/29 10:45:30;;;;;;;5.63;4.23;;;10.90;99.90;;;;;;5054729;28;20452;-58
2023/03/29 10:47:59;;;;;;;8.90;4.57;;;11.10;99.90;;;;;;5057864;28;20462;-61
2023/03/29 10:50:33;;;;;;;6.17;4.67;;;11.10;99.90;;;;;;5057717;28;20905;-60
2023/03/29 10:53:00;;;;;;;32.93;19.93;;;11.30;99.90;;;;;;5054068;28;20470;-60
2023/03/29 10:55:34;;;;;;;10.73;8.27;;;11.50;99.90;;;;;;5056317;28;20469;-62
2023/03/29 10:58:16;;;;;;;13.47;9.43;;;11.70;99.90;;;;;;5055216;28;20507;-60
2023/03/29 11:00:49;;;;;;;12.73;8.00;;;11.80;99.90;;;;;;5054816;28;20500;-61
2023/03/29 11:03:53;;;;;;;11.90;8.00;;;12.00;99.90;;;;;;5055580;28;20462;-57
2023/03/29 11:06:28;;;;;;;9.00;5.70;;;12.50;99.90;;;;;;5046841;28;20466;-62
2023/03/29 11:08:58;;;;;;;6.80;4.63;;;12.70;99.90;;;;;;5054866;28;20458;-61
2023/03/29 11:11:45;;;;;;;6.73;4.20;;;12.70;99.90;;;;;;5055941;28;20485;-62
2023/03/29 11:14:24;;;;;;;9.33;4.23;;;12.70;99.90;;;;;;5054280;28;20554;-62
2023/03/29 11:17:02;;;;;;;5.73;4.43;;;12.80;99.90;;;;;;5055017;28;20782;-62
2023/03/29 11:19:57;;;;;;;10.23;4.67;;;13.10;99.90;;;;;;5056892;28;20468;-62
2023/03/29 11:22:34;;;;;;;6.13;3.80;;;13.80;99.90;;;;;;5057307;28;20494;-62
2023/03/29 11:25:24;;;;;;;8.07;4.33;;;14.20;99.90;;;;;;5057942;28;20461;-60
2023/03/29 11:28:01;;;;;;;5.20;4.23;;;14.50;99.90;;;;;;5056129;28;20466;-61
2023/03/29 11:30:33;;;;;;;6.63;4.20;;;14.80;99.90;;;;;;5042988;28;20849;-61
2023/03/29 11:33:11;;;;;;;7.43;4.77;;;14.90;99.90;;;;;;5037673;28;20474;-61
2023/03/29 11:35:56;;;;;;;7.03;5.00;;;15.40;99.90;;;;;;5057082;28;20462;-60
2023/03/29 11:38:31;;;;;;;11.13;4.23;;;15.30;99.90;;;;;;5057329;28;20732;-62
2023/03/29 11:41:03;;;;;;;6.23;5.57;;;15.10;99.90;;;;;;5056705;28;20521;-59
2023/03/29 11:43:35;;;;;;;4.50;4.10;;;14.90;99.90;;;;;;5056920;28;20549;-62
2023/03/29 11:46:09;;;;;;;6.40;4.50;;;14.60;99.90;;;;;;5058330;28;20458;-60
2023/03/29 11:48:43;;;;;;;6.00;4.57;;;14.60;99.90;;;;;;5058092;28;20463;-61
2023/03/29 11:51:17;;;;;;;6.63;4.53;;;15.30;99.90;;;;;;5058275;28;20464;-61
2023/03/29 11:53:55;;;;;;;5.37;4.00;;;15.70;99.90;;;;;;5058356;28;20466;-60
2023/03/29 11:56:28;;;;;;;9.60;4.37;;;15.90;99.90;;;;;;5054004;28;20470;-62
2023/03/29 11:59:01;;;;;;;5.73;4.07;;;15.70;99.90;;;;;;5056249;28;20470;-61
2023/03/29 12:01:33;;;;;;;5.73;4.60;;;15.20;99.90;;;;;;5057025;28;20759;-61
2023/03/29 12:04:04;;;;;;;6.73;4.70;;;14.90;99.90;;;;;;5056613;28;20463;-62
2023/03/29 12:06:37;;;;;;;4.30;3.80;;;14.70;99.90;;;;;;5056694;28;20450;-61
2023/03/29 12:09:11;;;;;;;6.17;4.40;;;14.80;99.90;;;;;;5057938;28;20480;-59
2023/03/29 12:11:42;;;;;;;6.50;3.97;;;15.00;99.90;;;;;;5057940;28;20462;-61
2023/03/29 12:14:15;;;;;;;4.57;4.17;;;15.00;99.90;;;;;;5057279;28;20532;-62
2023/03/29 12:16:47;;;;;;;5.53;4.53;;;14.90;99.90;;;;;;5056329;28;20462;-61
2023/03/29 12:19:18;;;;;;;7.33;4.80;;;14.80;99.90;;;;;;5055783;28;20758;-62
2023/03/29 12:21:48;;;;;;;5.10;4.60;;;14.50;99.90;;;;;;5055795;28;20493;-62
2023/03/29 12:24:18;;;;;;;7.40;4.37;;;14.20;99.90;;;;;;5055875;28;20458;-59
2023/03/29 12:27:19;;;;;;;6.77;4.67;;;14.00;99.90;;;;;;5055697;28;20464;-61
2023/03/29 12:30:13;;;;;;;6.67;4.60;;;13.70;99.90;;;;;;5033883;28;20506;-62
2023/03/29 12:32:59;;;;;;;6.83;5.00;;;13.70;99.90;;;;;;5046581;28;20530;-62
2023/03/29 12:35:36;;;;;;;7.97;6.33;;;13.90;99.90;;;;;;5057005;28;20461;-59
2023/03/29 12:38:12;;;;;;;5.80;5.10;;;13.80;99.90;;;;;;5055985;28;20436;-61
2023/03/29 12:40:42;;;;;;;11.43;6.43;;;13.80;99.90;;;;;;5055861;28;20458;-62
2023/03/29 12:43:20;;;;;;;5.00;4.50;;;14.10;99.90;;;;;;5054542;28;20742;-60
2023/03/29 12:45:48;;;;;;;6.67;5.63;;;14.40;99.90;;;;;;5056320;28;20462;-58
2023/03/29 12:48:19;;;;;;;6.53;4.40;;;14.30;99.90;;;;;;5056449;28;20469;-59
2023/03/29 12:50:49;;;;;;;6.73;5.20;;;14.00;99.90;;;;;;5055617;28;20470;-59
2023/03/29 12:53:23;;;;;;;6.27;5.10;;;13.90;99.90;;;;;;5056531;28;20470;-61
2023/03/29 12:55:55;;;;;;;5.63;4.67;;;13.70;99.90;;;;;;5057086;28;20748;-61
2023/03/29 12:58:38;;;;;;;10.00;4.50;;;13.80;99.90;;;;;;5057645;28;20467;-60
2023/03/29 13:01:07;;;;;;;6.27;4.87;;;13.80;99.90;;;;;;5056941;28;20490;-60
2023/03/29 13:03:47;;;;;;;7.90;5.00;;;13.90;99.90;;;;;;5057663;28;20469;-59
2023/03/29 13:06:29;;;;;;;7.17;5.10;;;13.50;99.90;;;;;;5055852;28;20466;-57
2023/03/29 13:09:02;;;;;;;7.70;4.47;;;13.40;99.90;;;;;;5054233;28;20531;-60
2023/03/29 13:11:34;;;;;;;5.40;4.90;;;13.60;99.90;;;;;;5051625;28;20457;-61
2023/03/29 13:14:05;;;;;;;6.70;4.67;;;13.70;99.90;;;;;;5054210;28;20489;-60